Aérodrome :
LOGIN :

S'inscrire | Disclaimer

   EN    FR    IT 

 










Légende :    VFR   VFR Marginal   IFR   IFR Intensif   IFR Très Intensif
Visi : 
Plafond : 
>= 8 km
>= 3000ft
5 à 8 km
1000 à 3000 ft
1500m à 5 km
500 à 1000 ft
800 à 1500m
200 à 500 ft
< 800m
< 200 ft
Symboles :   Orages  Brouillard  Fortes neiges  Fortes précipitations  Vent > 20 kt
SIGMETs :   Divers  Orages  Givrage  Turbulence  Onde Orograph.  Cendres Volcan.






- Altitude de l'aérodrome : 117 ft
- Code IATA : NWI


EGSH - Norwich

DERNIER METAR :
  • 250820Z VRB02KT CAVOK 21/13 Q1017

METARs EXPIRÉS :
  • 250750Z VRB02KT CAVOK 21/13 Q1017 NOSIG
  • 250720Z VRB01KT CAVOK 20/13 Q1017
  • 250650Z VRB01KT CAVOK 19/12 Q1017
  • 250620Z VRB01KT CAVOK 18/12 Q1017
  • 250550Z VRB01KT 8000 NSC 17/13 Q1017
  • 250520Z VRB02KT 7000 NSC 15/13 Q1017
  • 250450Z 05002KT 8000 NSC 14/12 Q1017
  • 250420Z AUTO 00000KT 8000 NCD 13/12 Q1017
  • 250350Z AUTO 00000KT 8000 NCD 13/12 Q1017

TAF TAF EGSH
Valide du 25 à 06h jusqu'au 25 à 15h UTC


250455Z 2506/2515 VRB04KT 9999 FEW045
PROB30 2506/2508 8000
ATIS : +44 1603 420 640



MET'MAP, la Météo Aéronautique d'un coup d'oeil ! - Copyright ORBIFLY Décembre 2007 - Disclaimer

ORBIFLY MET'MAP TEAM :

Programmation & Développement : Alexandra Zaïnal
Sur une idée originale de : Baudouin d'Aumeries
Soutien technique & logistique : Manuel Goepfert
Assistance : Marc-Olivier Méhu




SOURCES & CREDITS :

   NOAA